Time;durP1;ratioP1;P1;durP2;ratioP2;P2;SDS_P1;SDS_P2;PMS_P1;PMS_P2;Temp;Humidity;BMP_temperature;BMP_pressure;BME280_temperature;BME280_humidity;BME280_pressure;Samples;Min_cycle;Max_cycle;Signal;HPM_P1;HPM_P2
2022/04/14 00:01:21;;;;;;;6.93;3.25;;;14.20;99.90;;;;;;5092596;28;20255;-79
2022/04/14 00:03:46;;;;;;;10.98;3.17;;;14.10;99.90;;;;;;5093269;28;20065;-79
2022/04/14 00:06:12;;;;;;;6.20;3.35;;;14.10;99.90;;;;;;5092065;28;20088;-79
2022/04/14 00:08:38;;;;;;;7.47;3.13;;;14.10;99.90;;;;;;5092316;28;20028;-79
2022/04/14 00:11:03;;;;;;;6.85;3.17;;;14.10;99.90;;;;;;5092319;28;20047;-79
2022/04/14 00:13:29;;;;;;;9.90;3.40;;;14.20;99.90;;;;;;5093423;28;20392;-79
2022/04/14 00:15:54;;;;;;;7.63;3.33;;;14.30;99.90;;;;;;5092120;28;20031;-79
2022/04/14 00:18:20;;;;;;;5.93;3.25;;;14.20;99.90;;;;;;5092442;28;20056;-78
2022/04/14 00:20:46;;;;;;;10.98;3.40;;;14.20;99.90;;;;;;5093705;28;20031;-79
2022/04/14 00:23:11;;;;;;;11.77;3.47;;;14.20;99.90;;;;;;5091622;28;20439;-79
2022/04/14 00:25:37;;;;;;;9.45;3.00;;;14.20;99.90;;;;;;5092405;28;20020;-79
2022/04/14 00:28:03;;;;;;;9.23;3.40;;;14.20;99.90;;;;;;5093096;28;20028;-79
2022/04/14 00:30:28;;;;;;;11.13;3.30;;;14.10;99.90;;;;;;5092441;28;20028;-79
2022/04/14 00:32:54;;;;;;;9.05;3.70;;;14.10;99.90;;;;;;5091903;28;20118;-79
2022/04/14 00:35:20;;;;;;;11.10;3.63;;;14.20;99.90;;;;;;5092506;28;20486;-79
2022/04/14 00:37:45;;;;;;;9.95;3.38;;;14.10;99.90;;;;;;5092083;28;20032;-79
2022/04/14 00:40:11;;;;;;;7.10;3.15;;;14.10;99.90;;;;;;5093082;28;20283;-78
2022/04/14 00:42:37;;;;;;;8.85;3.55;;;14.00;99.90;;;;;;5092304;28;20024;-79
2022/04/14 00:45:02;;;;;;;6.63;3.25;;;14.00;99.90;;;;;;5091670;28;20459;-79
2022/04/14 00:47:29;;;;;;;8.60;3.30;;;14.10;99.90;;;;;;5093343;28;20023;-79
2022/04/14 00:49:55;;;;;;;10.07;3.50;;;14.10;99.90;;;;;;5092348;28;20095;-79
2022/04/14 00:52:26;;;;;;;5.63;3.53;;;14.00;99.90;;;;;;5093207;28;20103;-78
2022/04/14 00:54:51;;;;;;;11.73;3.55;;;14.10;99.90;;;;;;5092002;28;20016;-79
2022/04/14 00:57:17;;;;;;;11.07;3.22;;;14.00;99.90;;;;;;5091142;28;20101;-79
2022/04/14 00:59:43;;;;;;;7.78;3.20;;;14.00;99.90;;;;;;5091766;28;20024;-79
2022/04/14 01:02:09;;;;;;;7.25;3.80;;;13.90;99.90;;;;;;5091347;28;20449;-79
2022/04/14 01:04:35;;;;;;;4.53;3.00;;;13.90;99.90;;;;;;5091965;28;20053;-79
2022/04/14 01:07:02;;;;;;;8.57;3.17;;;13.90;99.90;;;;;;5092402;28;20024;-79
2022/04/14 01:09:29;;;;;;;10.05;3.28;;;13.80;99.90;;;;;;5092955;28;20113;-79
2022/04/14 01:11:56;;;;;;;6.55;2.92;;;13.80;99.90;;;;;;5092524;28;20028;-78
2022/04/14 01:14:26;;;;;;;4.93;2.90;;;13.80;99.90;;;;;;5093093;28;20099;-78
2022/04/14 01:16:53;;;;;;;8.32;3.03;;;13.80;99.90;;;;;;5094501;28;20103;-79
2022/04/14 01:19:19;;;;;;;6.80;3.13;;;13.80;99.90;;;;;;5096586;28;20369;-79
2022/04/14 01:21:50;;;;;;;7.80;3.00;;;13.80;99.90;;;;;;5096627;28;20020;-79
2022/04/14 01:24:15;;;;;;;10.23;3.33;;;13.70;99.90;;;;;;5095175;28;20077;-79
2022/04/14 01:26:41;;;;;;;4.97;2.72;;;13.70;99.90;;;;;;5095163;28;20137;-78
2022/04/14 01:29:22;;;;;;;10.40;3.15;;;13.70;99.90;;;;;;5095718;28;20036;-77
2022/04/14 01:31:49;;;;;;;6.47;3.20;;;13.70;99.90;;;;;;5096552;28;20449;-78
2022/04/14 01:34:15;;;;;;;10.50;3.17;;;13.70;99.90;;;;;;5094633;28;20059;-77
2022/04/14 01:36:40;;;;;;;7.78;3.03;;;13.60;99.90;;;;;;5095142;28;20020;-77
2022/04/14 01:39:08;;;;;;;6.88;3.33;;;13.70;99.90;;;;;;5094643;28;20111;-78
2022/04/14 01:41:34;;;;;;;5.95;3.05;;;13.60;99.90;;;;;;5095011;28;20452;-77
2022/04/14 01:43:59;;;;;;;7.43;3.22;;;13.60;99.90;;;;;;5094200;28;20031;-77
2022/04/14 01:46:25;;;;;;;4.45;2.80;;;13.60;99.90;;;;;;5094679;28;20020;-78
2022/04/14 01:48:51;;;;;;;7.50;3.00;;;13.50;99.90;;;;;;5095044;28;20028;-78
2022/04/14 01:51:18;;;;;;;6.68;2.60;;;13.50;99.90;;;;;;5094334;28;20031;-78
2022/04/14 01:53:43;;;;;;;5.35;2.75;;;13.50;99.90;;;;;;5094684;28;20062;-78
2022/04/14 01:56:09;;;;;;;6.05;3.50;;;13.50;99.90;;;;;;5093817;28;20044;-77
2022/04/14 01:58:34;;;;;;;5.85;3.30;;;13.50;99.90;;;;;;5094857;28;20032;-78
2022/04/14 02:01:00;;;;;;;6.05;3.38;;;13.50;99.90;;;;;;5094440;28;20465;-78
2022/04/14 02:03:26;;;;;;;9.98;3.35;;;13.40;99.90;;;;;;5094592;28;20020;-78
2022/04/14 02:05:51;;;;;;;6.05;2.85;;;13.50;99.90;;;;;;5094657;28;20020;-78
2022/04/14 02:08:17;;;;;;;6.55;3.47;;;13.60;99.90;;;;;;5095029;28;20108;-77
2022/04/14 02:10:43;;;;;;;5.18;3.00;;;13.60;99.90;;;;;;5094457;28;20016;-78
2022/04/14 02:13:09;;;;;;;9.35;3.28;;;13.50;99.90;;;;;;5093804;28;20471;-78
2022/04/14 02:15:34;;;;;;;8.75;3.25;;;13.50;99.90;;;;;;5094321;28;20498;-78
2022/04/14 02:18:00;;;;;;;7.75;3.45;;;13.40;99.90;;;;;;5094778;28;20028;-78
2022/04/14 02:20:26;;;;;;;7.30;3.08;;;13.40;99.90;;;;;;5095473;28;20098;-78
2022/04/14 02:22:51;;;;;;;9.15;3.00;;;13.30;99.90;;;;;;5094285;28;20027;-78
2022/04/14 02:25:17;;;;;;;5.88;2.88;;;13.20;99.90;;;;;;5094999;28;20210;-78
2022/04/14 02:27:42;;;;;;;9.20;3.35;;;13.20;99.90;;;;;;5094698;28;20050;-78
2022/04/14 02:30:09;;;;;;;5.53;3.10;;;13.20;99.90;;;;;;5093593;28;20028;-78
2022/04/14 02:32:34;;;;;;;6.80;2.97;;;13.10;99.90;;;;;;5095210;28;20091;-78
2022/04/14 02:35:01;;;;;;;11.45;4.25;;;13.10;99.90;;;;;;5093591;28;20052;-77
2022/04/14 02:37:27;;;;;;;9.45;3.30;;;13.10;99.90;;;;;;5095016;28;20392;-78
2022/04/14 02:39:53;;;;;;;8.48;3.85;;;13.20;99.90;;;;;;5093828;28;20028;-78
2022/04/14 02:42:18;;;;;;;10.60;4.63;;;13.30;99.90;;;;;;5093273;28;20028;-78
2022/04/14 02:44:44;;;;;;;10.18;3.90;;;13.40;99.90;;;;;;5093865;28;20099;-78
2022/04/14 02:47:09;;;;;;;8.50;3.90;;;13.50;99.90;;;;;;5093348;28;20028;-77
2022/04/14 02:49:36;;;;;;;8.20;3.40;;;13.50;99.90;;;;;;5094731;28;20055;-78
2022/04/14 02:52:02;;;;;;;9.45;3.95;;;13.50;99.90;;;;;;5094261;28;20394;-78
2022/04/14 02:54:27;;;;;;;7.50;3.13;;;13.60;99.90;;;;;;5094701;28;20019;-77
2022/04/14 02:56:53;;;;;;;11.38;3.65;;;13.60;99.90;;;;;;5093154;28;20047;-78
2022/04/14 02:59:19;;;;;;;7.43;3.53;;;13.50;99.90;;;;;;5092970;28;20765;-78
2022/04/14 03:01:44;;;;;;;5.82;3.67;;;13.50;99.90;;;;;;5094678;28;20043;-77
2022/04/14 03:04:10;;;;;;;7.30;3.67;;;13.40;99.90;;;;;;5094282;28;20051;-78
2022/04/14 03:06:36;;;;;;;6.10;2.97;;;13.40;99.90;;;;;;5094886;28;20073;-77
2022/04/14 03:09:02;;;;;;;7.90;3.20;;;13.30;99.90;;;;;;5092886;28;20055;-78
2022/04/14 03:11:28;;;;;;;8.32;3.47;;;13.30;99.90;;;;;;5092870;28;20047;-77
2022/04/14 03:13:53;;;;;;;9.55;3.45;;;13.30;99.90;;;;;;5093283;28;20027;-77
2022/04/14 03:16:19;;;;;;;6.97;2.90;;;13.30;99.90;;;;;;5094156;28;20024;-78
2022/04/14 03:18:45;;;;;;;7.03;3.45;;;13.30;99.90;;;;;;5093263;28;20027;-78
2022/04/14 03:21:11;;;;;;;9.40;2.85;;;13.30;99.90;;;;;;5092602;28;20024;-77
2022/04/14 03:23:39;;;;;;;9.63;3.60;;;13.30;99.90;;;;;;5093209;28;20046;-77
2022/04/14 03:26:08;;;;;;;9.15;3.50;;;13.20;99.90;;;;;;5092408;28;20024;-78
2022/04/14 03:28:34;;;;;;;9.70;3.85;;;13.10;99.90;;;;;;5094187;28;20521;-78
2022/04/14 03:30:59;;;;;;;7.97;2.92;;;13.10;99.90;;;;;;5094386;28;20103;-78
2022/04/14 03:33:25;;;;;;;7.82;3.55;;;13.10;99.90;;;;;;5092834;28;20457;-78
2022/04/14 03:35:51;;;;;;;11.77;4.10;;;13.10;99.90;;;;;;5094164;28;20097;-77
2022/04/14 03:38:16;;;;;;;6.75;3.80;;;13.20;99.90;;;;;;5092463;28;20020;-78
2022/04/14 03:40:42;;;;;;;5.47;3.15;;;13.20;99.90;;;;;;5092739;28;20050;-78
2022/04/14 03:43:07;;;;;;;5.70;3.33;;;13.10;99.90;;;;;;5092711;28;20457;-78
2022/04/14 03:45:33;;;;;;;8.55;3.58;;;13.10;99.90;;;;;;5094363;28;20028;-78
2022/04/14 03:47:58;;;;;;;11.38;3.63;;;13.10;99.90;;;;;;5093223;28;20399;-78
2022/04/14 03:50:24;;;;;;;14.05;3.80;;;13.00;99.90;;;;;;5093392;28;20364;-78
2022/04/14 03:52:50;;;;;;;7.13;3.60;;;13.00;99.90;;;;;;5092420;28;20020;-77
2022/04/14 03:55:15;;;;;;;7.65;3.33;;;13.00;99.90;;;;;;5091758;28;20520;-78
2022/04/14 03:57:42;;;;;;;7.32;3.67;;;13.00;99.90;;;;;;5092536;28;20136;-78
2022/04/14 04:00:10;;;;;;;11.52;4.13;;;12.90;99.90;;;;;;5090547;28;20055;-77
2022/04/14 04:02:36;;;;;;;6.43;3.65;;;13.00;99.90;;;;;;5083188;28;20020;-77
2022/04/14 04:05:03;;;;;;;8.65;3.65;;;12.90;99.90;;;;;;5089159;28;20059;-77
2022/04/14 04:07:28;;;;;;;8.23;3.20;;;12.90;99.90;;;;;;5088207;28;20032;-78
2022/04/14 04:09:54;;;;;;;7.63;3.55;;;12.80;99.90;;;;;;5090374;28;20111;-78
2022/04/14 04:12:21;;;;;;;10.13;4.00;;;12.80;99.90;;;;;;5088439;28;20051;-77
2022/04/14 04:14:48;;;;;;;10.73;4.50;;;12.90;99.90;;;;;;5090370;28;20073;-77
2022/04/14 04:17:14;;;;;;;7.35;3.58;;;12.90;99.90;;;;;;5089590;28;20029;-78
2022/04/14 04:19:40;;;;;;;7.45;3.50;;;12.80;99.90;;;;;;5088439;28;20024;-77
2022/04/14 04:22:06;;;;;;;11.00;3.53;;;12.80;99.90;;;;;;5088670;28;20031;-78
2022/04/14 04:24:32;;;;;;;8.60;3.50;;;12.80;99.90;;;;;;5090042;28;20056;-77
2022/04/14 04:26:57;;;;;;;7.45;3.38;;;12.80;99.90;;;;;;5088541;28;20503;-77
2022/04/14 04:29:23;;;;;;;7.80;3.70;;;12.80;99.90;;;;;;5088405;28;20032;-78
2022/04/14 04:31:48;;;;;;;9.27;3.88;;;12.80;99.90;;;;;;5088536;28;20016;-77
2022/04/14 04:34:14;;;;;;;7.00;3.60;;;12.80;99.90;;;;;;5088021;28;20060;-77
2022/04/14 04:36:40;;;;;;;8.77;3.97;;;12.70;99.90;;;;;;5088576;28;20085;-77
2022/04/14 04:39:05;;;;;;;11.07;3.83;;;12.70;99.90;;;;;;5089101;28;20044;-78
2022/04/14 04:41:31;;;;;;;9.40;3.70;;;12.70;99.90;;;;;;5088667;28;20028;-77
2022/04/14 04:43:57;;;;;;;11.77;4.13;;;12.60;99.90;;;;;;5088746;28;20017;-77
2022/04/14 04:46:22;;;;;;;7.63;3.47;;;12.60;99.90;;;;;;5089369;28;20035;-78
2022/04/14 04:48:48;;;;;;;9.27;3.80;;;12.60;99.90;;;;;;5090065;28;20461;-77
2022/04/14 04:51:13;;;;;;;7.10;3.70;;;12.50;99.90;;;;;;5091900;28;20085;-78
2022/04/14 04:53:39;;;;;;;9.30;4.32;;;12.50;99.90;;;;;;5094091;28;20023;-77
2022/04/14 04:56:05;;;;;;;6.72;3.75;;;12.50;99.90;;;;;;5092146;28;20036;-77
2022/04/14 04:58:30;;;;;;;11.55;4.43;;;12.50;99.90;;;;;;5094107;28;20519;-77
2022/04/14 05:00:56;;;;;;;9.85;4.53;;;12.50;99.90;;;;;;5086267;28;20016;-76
2022/04/14 05:03:22;;;;;;;9.15;3.80;;;12.50;99.90;;;;;;5088346;28;20032;-77
2022/04/14 05:05:48;;;;;;;8.30;4.03;;;12.50;99.90;;;;;;5093811;28;20027;-78
2022/04/14 05:08:14;;;;;;;9.60;5.07;;;12.50;99.90;;;;;;5093115;28;20469;-77
2022/04/14 05:10:39;;;;;;;7.35;3.97;;;12.50;99.90;;;;;;5092213;28;20031;-77
2022/04/14 05:13:05;;;;;;;8.98;4.43;;;12.50;99.90;;;;;;5092461;28;20026;-77
2022/04/14 05:15:31;;;;;;;14.48;4.72;;;12.40;99.90;;;;;;5093696;28;20024;-77
2022/04/14 05:17:57;;;;;;;10.73;4.35;;;12.40;99.90;;;;;;5092291;28;20024;-78
2022/04/14 05:20:22;;;;;;;9.70;4.65;;;12.40;99.90;;;;;;5091689;28;20028;-78
2022/04/14 05:22:48;;;;;;;11.20;5.07;;;12.40;99.90;;;;;;5093806;28;20031;-77
2022/04/14 05:25:14;;;;;;;11.95;4.47;;;12.50;99.90;;;;;;5091319;28;20028;-78
2022/04/14 05:27:42;;;;;;;10.85;4.43;;;12.50;99.90;;;;;;5091810;28;20127;-78
2022/04/14 05:30:08;;;;;;;13.80;5.05;;;12.50;99.90;;;;;;5091945;28;20028;-77
2022/04/14 05:32:34;;;;;;;10.82;4.57;;;12.50;99.90;;;;;;5081448;28;20024;-77
2022/04/14 05:35:00;;;;;;;12.85;4.40;;;12.60;99.90;;;;;;5092933;28;20526;-77
2022/04/14 05:37:25;;;;;;;13.35;4.32;;;12.60;99.90;;;;;;5091387;28;20380;-78
2022/04/14 05:39:51;;;;;;;12.80;4.82;;;12.70;99.90;;;;;;5093445;28;20024;-77
2022/04/14 05:42:16;;;;;;;11.85;4.68;;;12.70;99.90;;;;;;5092570;28;20020;-77
2022/04/14 05:44:42;;;;;;;13.73;5.50;;;12.70;99.90;;;;;;5091812;28;20032;-77
2022/04/14 05:47:07;;;;;;;11.15;4.25;;;12.80;99.90;;;;;;5093037;28;20027;-78
2022/04/14 05:49:33;;;;;;;18.10;4.75;;;12.90;99.90;;;;;;5091753;28;20124;-77
2022/04/14 05:51:59;;;;;;;14.60;5.20;;;12.90;99.90;;;;;;5091434;28;20368;-77
2022/04/14 05:54:25;;;;;;;13.60;5.10;;;13.00;99.90;;;;;;5091565;28;20028;-77
2022/04/14 05:56:50;;;;;;;13.65;4.90;;;13.10;99.90;;;;;;5092868;28;20466;-77
2022/04/14 05:59:16;;;;;;;16.17;5.38;;;13.10;99.90;;;;;;5092388;28;20043;-78
2022/04/14 06:01:46;;;;;;;11.50;4.68;;;13.10;99.90;;;;;;5081001;28;20063;-78
2022/04/14 06:04:12;;;;;;;12.82;5.07;;;13.10;99.90;;;;;;5091333;28;20031;-78
2022/04/14 06:06:38;;;;;;;13.18;5.18;;;13.20;99.90;;;;;;5091123;28;20074;-78
2022/04/14 06:09:04;;;;;;;12.20;4.72;;;13.20;99.90;;;;;;5091162;28;20028;-78
2022/04/14 06:11:30;;;;;;;10.02;5.38;;;13.30;99.90;;;;;;5090498;28;20473;-78
2022/04/14 06:13:56;;;;;;;10.63;4.80;;;13.30;99.90;;;;;;5092512;28;20091;-77
2022/04/14 06:16:21;;;;;;;10.13;5.05;;;13.40;99.90;;;;;;5090630;28;20119;-78
2022/04/14 06:18:47;;;;;;;14.55;5.10;;;13.40;99.90;;;;;;5091086;28;20054;-78
2022/04/14 06:21:13;;;;;;;13.73;4.95;;;13.50;99.90;;;;;;5090760;28;20139;-78
2022/04/14 06:23:38;;;;;;;12.90;5.55;;;13.50;99.90;;;;;;5092017;28;20109;-78
2022/04/14 06:26:04;;;;;;;13.48;5.18;;;13.50;99.90;;;;;;5090727;28;20111;-78
2022/04/14 06:28:31;;;;;;;14.35;6.95;;;13.60;99.90;;;;;;5090380;28;20032;-78
2022/04/14 06:30:57;;;;;;;13.20;7.07;;;13.70;99.90;;;;;;5083173;28;20454;-78
2022/04/14 06:33:23;;;;;;;14.75;7.82;;;13.80;99.90;;;;;;5087953;28;20027;-78
2022/04/14 06:35:49;;;;;;;15.55;8.02;;;13.90;99.90;;;;;;5090424;28;20031;-78
2022/04/14 06:38:16;;;;;;;20.70;9.52;;;13.90;99.90;;;;;;5090032;28;20032;-78
2022/04/14 06:40:41;;;;;;;21.02;9.18;;;14.00;99.90;;;;;;5090424;28;20127;-78
2022/04/14 06:43:07;;;;;;;18.95;9.45;;;14.10;99.90;;;;;;5090279;28;20110;-78
2022/04/14 06:45:33;;;;;;;19.50;10.45;;;14.20;99.90;;;;;;5090018;28;20031;-78
2022/04/14 06:47:59;;;;;;;22.45;10.13;;;14.30;99.90;;;;;;5091673;28;20035;-77
2022/04/14 06:50:25;;;;;;;18.52;9.80;;;14.40;99.90;;;;;;5089521;28;20024;-78
2022/04/14 06:52:53;;;;;;;17.52;10.00;;;14.50;99.90;;;;;;5090515;28;20024;-78
2022/04/14 06:55:21;;;;;;;16.08;9.63;;;14.60;99.90;;;;;;5089475;28;20469;-78
2022/04/14 06:57:47;;;;;;;17.98;9.60;;;14.60;99.90;;;;;;5090278;28;20028;-78
2022/04/14 07:00:13;;;;;;;20.98;10.57;;;14.70;99.90;;;;;;5088141;28;20035;-78
2022/04/14 07:02:50;;;;;;;19.00;9.60;;;14.80;99.90;;;;;;5080878;28;20028;-78
2022/04/14 07:05:16;;;;;;;19.02;9.85;;;14.90;99.90;;;;;;5089747;28;20028;-78
2022/04/14 07:07:43;;;;;;;23.98;10.75;;;15.00;99.90;;;;;;5089992;28;20024;-78
2022/04/14 07:10:10;;;;;;;20.90;10.35;;;15.10;99.90;;;;;;5091403;28;20461;-78
2022/04/14 07:12:36;;;;;;;20.95;10.73;;;15.20;99.90;;;;;;5091240;28;20364;-78
2022/04/14 07:15:02;;;;;;;21.65;10.82;;;15.20;99.90;;;;;;5088867;28;20233;-78
2022/04/14 07:17:27;;;;;;;18.83;10.18;;;15.30;99.90;;;;;;5089060;28;20028;-77
2022/04/14 07:19:53;;;;;;;21.70;10.57;;;15.30;99.90;;;;;;5090097;28;20020;-78
2022/04/14 07:22:19;;;;;;;20.48;10.88;;;15.30;99.90;;;;;;5089217;28;20024;-78
2022/04/14 07:24:48;;;;;;;18.67;10.90;;;15.30;99.90;;;;;;5089772;28;20492;-78
2022/04/14 07:27:19;;;;;;;19.35;10.57;;;15.30;99.90;;;;;;5089096;28;20067;-78
2022/04/14 07:29:48;;;;;;;21.07;10.93;;;15.40;99.90;;;;;;5091091;28;20099;-78
2022/04/14 07:32:14;;;;;;;22.50;11.07;;;15.50;99.90;;;;;;5077869;28;20602;-78
2022/04/14 07:34:40;;;;;;;19.90;11.35;;;15.50;99.90;;;;;;5089676;28;20059;-77
2022/04/14 07:37:06;;;;;;;20.98;10.85;;;15.50;99.90;;;;;;5091006;28;20479;-78
2022/04/14 07:39:32;;;;;;;21.75;11.15;;;15.50;99.90;;;;;;5089320;28;20109;-78
2022/04/14 07:41:57;;;;;;;21.50;10.63;;;15.60;99.90;;;;;;5089360;28;20024;-78
2022/04/14 07:44:23;;;;;;;17.58;10.00;;;15.60;99.90;;;;;;5088679;28;20050;-78
2022/04/14 07:46:50;;;;;;;18.63;10.25;;;15.70;99.90;;;;;;5089220;28;20051;-78
2022/04/14 07:49:15;;;;;;;19.30;10.70;;;15.80;99.90;;;;;;5088835;28;20028;-78
2022/04/14 07:51:41;;;;;;;21.33;11.05;;;15.80;99.90;;;;;;5088989;28;20031;-78
2022/04/14 07:54:07;;;;;;;23.90;11.68;;;15.90;99.90;;;;;;5089172;28;20453;-78
2022/04/14 07:56:33;;;;;;;20.17;10.93;;;16.00;99.90;;;;;;5087926;28;20075;-78
2022/04/14 07:58:59;;;;;;;20.20;10.57;;;16.00;99.90;;;;;;5090351;28;20071;-77
2022/04/14 08:01:25;;;;;;;20.17;10.55;;;16.10;99.90;;;;;;5076960;28;20480;-78
2022/04/14 08:03:51;;;;;;;18.60;11.02;;;16.20;99.90;;;;;;5089013;28;20022;-77
2022/04/14 08:06:17;;;;;;;18.13;10.93;;;16.20;99.90;;;;;;5089610;28;20115;-78
2022/04/14 08:08:43;;;;;;;22.40;11.27;;;16.30;99.90;;;;;;5088886;28;20115;-77
2022/04/14 08:11:10;;;;;;;20.98;11.10;;;16.30;99.90;;;;;;5088942;28;20453;-77
2022/04/14 08:13:38;;;;;;;18.73;10.88;;;16.50;99.90;;;;;;5087321;28;20063;-78
2022/04/14 08:16:08;;;;;;;20.88;10.90;;;16.60;99.90;;;;;;5088040;28;20035;-78
2022/04/14 08:18:36;;;;;;;18.85;11.57;;;16.70;99.90;;;;;;5088226;28;20468;-78
2022/04/14 08:21:03;;;;;;;19.73;10.85;;;16.80;99.90;;;;;;5089468;28;20036;-78
2022/04/14 08:23:29;;;;;;;19.10;11.05;;;16.80;99.90;;;;;;5087874;28;20105;-78
2022/04/14 08:25:55;;;;;;;21.15;11.82;;;17.00;99.90;;;;;;5092204;28;20035;-78
2022/04/14 08:28:21;;;;;;;21.42;11.10;;;17.00;99.90;;;;;;5092546;28;20051;-77
2022/04/14 08:30:47;;;;;;;20.98;11.15;;;17.10;99.90;;;;;;5086783;28;20408;-77
2022/04/14 08:33:13;;;;;;;17.83;10.30;;;17.10;99.90;;;;;;5087758;28;20028;-77
2022/04/14 08:35:39;;;;;;;19.10;11.25;;;17.10;99.90;;;;;;5094479;28;20020;-78
2022/04/14 08:38:09;;;;;;;21.95;11.15;;;17.20;99.90;;;;;;5094191;28;20032;-77
2022/04/14 08:40:36;;;;;;;18.70;11.48;;;17.20;99.90;;;;;;5091929;28;20089;-77
2022/04/14 08:43:07;;;;;;;21.77;11.55;;;17.20;99.90;;;;;;5092706;28;20236;-77
2022/04/14 08:45:35;;;;;;;18.85;10.60;;;17.20;99.90;;;;;;5091569;28;20028;-77
2022/04/14 08:48:02;;;;;;;22.67;11.40;;;17.20;99.90;;;;;;5093677;28;20036;-78
2022/04/14 08:50:29;;;;;;;21.05;10.65;;;17.30;99.90;;;;;;5091697;28;20038;-78
2022/04/14 08:52:55;;;;;;;19.98;11.65;;;17.40;99.90;;;;;;5092263;28;20085;-78
2022/04/14 08:55:21;;;;;;;18.00;11.70;;;17.40;99.90;;;;;;5092834;28;20036;-78
2022/04/14 08:57:47;;;;;;;21.50;12.23;;;17.50;99.90;;;;;;5092368;28;20024;-78
2022/04/14 09:00:17;;;;;;;21.58;10.77;;;17.40;99.90;;;;;;5092045;28;20168;-78
2022/04/14 09:02:46;;;;;;;19.52;10.70;;;17.50;99.90;;;;;;5094072;28;20107;-78
2022/04/14 09:05:13;;;;;;;23.60;12.15;;;17.60;99.90;;;;;;5092375;28;20028;-78
2022/04/14 09:07:39;;;;;;;21.73;12.23;;;17.70;99.90;;;;;;5091755;28;20119;-78
2022/04/14 09:10:06;;;;;;;19.65;12.20;;;17.70;99.90;;;;;;5093569;28;20436;-78
2022/04/14 09:12:35;;;;;;;20.48;11.65;;;17.80;99.90;;;;;;5092044;28;20123;-78
2022/04/14 09:15:01;;;;;;;19.63;11.57;;;17.80;99.90;;;;;;5092337;28;20028;-78
2022/04/14 09:17:27;;;;;;;21.77;11.45;;;17.80;99.90;;;;;;5091861;28;20038;-78
2022/04/14 09:19:53;;;;;;;19.25;11.20;;;17.90;99.90;;;;;;5092321;28;20028;-78
2022/04/14 09:22:20;;;;;;;20.65;11.07;;;17.90;99.90;;;;;;5091447;28;20065;-78
2022/04/14 09:24:50;;;;;;;18.08;11.40;;;17.90;99.90;;;;;;5092058;28;20119;-78
2022/04/14 09:27:32;;;;;;;21.75;11.70;;;17.90;99.90;;;;;;5092954;28;20040;-78
2022/04/14 09:29:59;;;;;;;;;;;18.00;99.90;;;;;;5078252;28;20020;-78
2022/04/14 09:32:30;;;;;;;19.88;11.88;;;18.00;99.90;;;;;;5080233;28;19904;-78
2022/04/14 09:34:57;;;;;;;24.30;11.88;;;18.00;99.90;;;;;;5092216;28;20526;-78
2022/04/14 09:37:24;;;;;;;21.05;12.25;;;17.90;99.90;;;;;;5091451;28;20039;-77
2022/04/14 09:40:03;;;;;;;21.08;11.75;;;17.80;99.90;;;;;;5075178;28;20028;-78
2022/04/14 09:42:30;;;;;;;24.83;12.65;;;17.80;99.90;;;;;;5091689;28;20098;-78
2022/04/14 09:45:19;;;;;;;22.92;12.50;;;17.70;99.90;;;;;;5092274;28;20074;-78
2022/04/14 09:47:46;;;;;;;21.98;12.90;;;17.60;99.90;;;;;;5091670;28;20377;-78
2022/04/14 09:50:35;;;;;;;21.60;11.85;;;17.60;99.90;;;;;;5091667;28;20365;-78
2022/04/14 09:53:09;;;;;;;22.88;12.63;;;17.70;99.90;;;;;;5091167;28;20064;-78
2022/04/14 09:55:37;;;;;;;22.65;12.00;;;17.90;99.90;;;;;;5090197;28;20469;-78
2022/04/14 09:58:13;;;;;;;23.48;13.02;;;17.90;99.90;;;;;;5091371;28;20040;-78
2022/04/14 10:00:58;;;;;;;21.80;12.43;;;18.00;99.90;;;;;;5087419;28;20031;-78
2022/04/14 10:03:24;;;;;;;21.30;12.15;;;18.00;99.90;;;;;;5088723;28;20552;-78
2022/04/14 10:05:52;;;;;;;19.63;12.18;;;18.00;99.90;;;;;;5091436;28;20453;-78
2022/04/14 10:08:19;;;;;;;21.50;12.60;;;18.10;99.90;;;;;;5090523;28;20028;-78
2022/04/14 10:10:49;;;;;;;19.95;12.18;;;18.10;99.90;;;;;;5092991;28;20453;-78
2022/04/14 10:13:16;;;;;;;29.75;13.77;;;18.20;99.90;;;;;;5091078;28;20028;-78
2022/04/14 10:15:47;;;;;;;21.17;12.85;;;18.10;99.90;;;;;;5092161;28;20020;-78
2022/04/14 10:18:14;;;;;;;24.13;12.90;;;18.10;99.90;;;;;;5091065;28;20043;-79
2022/04/14 10:20:42;;;;;;;21.52;12.48;;;18.10;99.90;;;;;;5090665;28;20032;-78
2022/04/14 10:23:08;;;;;;;20.42;12.77;;;18.10;99.90;;;;;;5090801;28;20055;-78
2022/04/14 10:25:38;;;;;;;25.40;12.73;;;18.10;99.90;;;;;;5089981;28;20021;-77
2022/04/14 10:28:06;;;;;;;22.08;12.80;;;18.10;99.90;;;;;;5090860;28;20189;-78
2022/04/14 10:30:32;;;;;;;24.42;12.80;;;17.90;99.90;;;;;;5085845;28;20025;-77
2022/04/14 10:32:58;;;;;;;22.95;12.93;;;18.00;99.90;;;;;;5084869;28;20372;-78
2022/04/14 10:35:30;;;;;;;26.48;13.15;;;18.00;99.90;;;;;;5090710;28;20026;-78
2022/04/14 10:38:15;;;;;;;;;;;18.00;99.90;;;;;;5092174;28;20031;-78
2022/04/14 10:40:48;;;;;;;21.92;11.43;;;18.00;99.90;;;;;;5090117;28;19957;-78
2022/04/14 10:43:18;;;;;;;22.33;13.20;;;18.10;99.90;;;;;;5091770;28;20516;-77
2022/04/14 10:45:49;;;;;;;22.80;12.57;;;18.10;99.90;;;;;;5091774;28;20028;-78
2022/04/14 10:48:39;;;;;;;30.25;12.23;;;18.10;99.90;;;;;;5090143;28;20032;-78
2022/04/14 10:51:27;;;;;;;21.40;12.57;;;18.20;99.90;;;;;;5090426;28;20380;-78
2022/04/14 10:54:05;;;;;;;18.98;12.45;;;18.30;99.90;;;;;;5075610;28;20099;-78
2022/04/14 10:56:33;;;;;;;23.67;13.57;;;18.40;99.90;;;;;;5089422;28;20116;-78
2022/04/14 10:59:02;;;;;;;23.77;12.75;;;18.40;99.90;;;;;;5089967;28;20032;-78
2022/04/14 11:01:52;;;;;;;20.40;12.43;;;18.50;99.90;;;;;;5077558;28;20050;-78
2022/04/14 11:04:31;;;;;;;22.15;12.13;;;18.60;99.90;;;;;;5078537;28;20038;-77
2022/04/14 11:07:14;;;;;;;24.83;12.70;;;18.70;99.90;;;;;;5089586;28;20031;-78
2022/04/14 11:09:43;;;;;;;24.58;13.98;;;18.70;99.90;;;;;;5090715;28;20028;-78
2022/04/14 11:12:22;;;;;;;21.67;12.70;;;18.70;99.90;;;;;;5091332;28;20042;-78
2022/04/14 11:14:58;;;;;;;21.52;12.93;;;18.80;99.90;;;;;;5090239;28;20028;-78
2022/04/14 11:17:37;;;;;;;22.70;12.60;;;18.80;99.90;;;;;;5089468;28;20380;-78
2022/04/14 11:20:46;;;;;;;24.20;12.63;;;18.90;99.60;;;;;;5091462;28;20028;-78
2022/04/14 11:23:15;;;;;;;20.83;12.55;;;19.00;99.50;;;;;;5046661;28;20056;-78
2022/04/14 11:25:49;;;;;;;19.98;12.77;;;19.10;99.60;;;;;;5051096;28;20049;-78
2022/04/14 11:28:25;;;;;;;21.77;12.45;;;19.10;99.10;;;;;;5061503;28;20049;-77
2022/04/14 11:30:58;;;;;;;22.25;13.18;;;19.20;99.30;;;;;;5036641;28;20021;-78
2022/04/14 11:33:30;;;;;;;21.63;12.63;;;19.20;98.70;;;;;;5047346;28;20036;-79
2022/04/14 11:36:10;;;;;;;21.95;11.95;;;19.30;98.70;;;;;;5064027;28;20077;-78
2022/04/14 11:38:55;;;;;;;22.95;12.13;;;19.40;98.60;;;;;;5047179;28;20079;-78
2022/04/14 11:41:46;;;;;;;24.38;11.75;;;19.50;98.00;;;;;;5048060;28;20037;-79
2022/04/14 11:44:21;;;;;;;20.38;12.75;;;19.60;98.20;;;;;;5031172;28;20158;-78
2022/04/14 11:46:49;;;;;;;19.02;11.77;;;19.70;98.00;;;;;;5042290;28;20063;-79
2022/04/14 11:49:26;;;;;;;23.38;14.27;;;19.80;97.30;;;;;;5035449;28;20063;-79
2022/04/14 11:51:56;;;;;;;22.98;12.85;;;19.80;96.70;;;;;;5011173;28;20065;-78
2022/04/14 11:54:33;;;;;;;24.83;12.38;;;19.90;97.00;;;;;;5064475;28;20058;-77
2022/04/14 11:57:01;;;;;;;22.23;12.82;;;20.00;97.00;;;;;;5090309;28;20048;-78
2022/04/14 11:59:33;;;;;;;19.50;12.73;;;20.00;96.80;;;;;;5087735;28;20532;-78
2022/04/14 12:02:10;;;;;;;18.10;11.23;;;20.00;95.70;;;;;;5077726;28;20043;-78
2022/04/14 12:04:37;;;;;;;18.88;11.13;;;20.10;95.60;;;;;;5088495;28;20028;-78
2022/04/14 12:07:04;;;;;;;21.58;11.68;;;20.30;95.60;;;;;;5088282;28;20028;-78
2022/04/14 12:09:29;;;;;;;19.42;11.07;;;20.40;95.50;;;;;;5088409;28;20116;-78
2022/04/14 12:11:55;;;;;;;17.83;10.32;;;20.50;95.80;;;;;;5089015;28;20020;-78
2022/04/14 12:14:21;;;;;;;18.77;9.93;;;20.70;94.80;;;;;;5089683;28;20025;-78
2022/04/14 12:16:49;;;;;;;16.55;9.65;;;20.90;94.80;;;;;;5090039;28;20339;-78
2022/04/14 12:19:15;;;;;;;19.55;10.63;;;21.20;94.70;;;;;;5090089;28;20028;-78
2022/04/14 12:21:40;;;;;;;15.82;9.82;;;21.40;94.00;;;;;;5089954;28;20039;-78
2022/04/14 12:24:06;;;;;;;16.65;10.02;;;21.50;94.70;;;;;;5088675;28;20032;-78
2022/04/14 12:26:35;;;;;;;17.15;10.13;;;21.50;92.50;;;;;;5088028;28;20032;-78
2022/04/14 12:29:02;;;;;;;16.58;9.32;;;21.50;91.60;;;;;;5088692;28;20032;-79
2022/04/14 12:31:29;;;;;;;15.75;9.25;;;21.70;91.50;;;;;;5078248;28;20035;-79
2022/04/14 12:33:59;;;;;;;16.02;9.25;;;21.80;90.20;;;;;;5088828;28;20024;-77
2022/04/14 12:36:35;;;;;;;14.07;8.73;;;21.90;88.90;;;;;;5088121;28;20024;-78
2022/04/14 12:39:15;;;;;;;15.52;9.18;;;22.10;87.90;;;;;;5088553;28;20028;-78